Airfield :
LOGIN :

Register | Disclaimer

   EN    FR    IT 

 










Legend :    VFR   Marginal VFR   IFR   Intensive IFR   Very Intensive IFR
Visi :
Ceiling :
>= 8 km
>= 3000ft
5 to 8 km
1000 to 3000 ft
1500m to 5 km
500 to 1000 ft
800 to 1500m
200 to 500 ft
< 800m
< 200 ft
Symbols :   Thunderstorms  Fog  Heavy snow  Heavy precipitations  Wind > 20 kt
SIGMETs :     Misc.  Thunderstorms  Icing  Turbulence  Mountain Waves  Volcanic Ashes






- Airport Elevation : 15 ft
- IATA code : GIB


LXGB - Gibraltar

CURRENT METAR :
  • 021420Z 09013KT 9999 FEW015 SCT025 15/09 Q1028 NOSIG RMK BLU BLU

EXPIRED METARs :
  • 021350Z 09014KT 9999 FEW015 15/09 Q1028 NOSIG RMK BLU BLU
  • 021320Z 07014KT 9999 FEW015 SCT028 14/10 Q1028 NOSIG RMK BLU BLU
  • 021250Z 07014KT 9999 FEW015 14/10 Q1028 NOSIG RMK BLU BLU
  • 021220Z 07014KT 9999 FEW015 14/09 Q1029 NOSIG RMK BLU BLU
  • 021150Z 07014KT 9999 FEW015 15/10 Q1029 NOSIG RMK BLU BLU
  • 021120Z 06013KT 9999 FEW015 15/10 Q1029 NOSIG RMK BLU BLU

TAF TAF LXGB
Valid from the 02 at 15:00 until the 02 at 23:00 UTC


021333Z 0215/0223 07012KT 9999 FEW015
PROB30
TEMPO 0215/0218 08015G25KT
PROB30
TEMPO 0220/0223 SCT022



MET'MAP, your aeronautical weather chart ! - Copyright ORBIFLY December 2007 - Disclaimer

ORBIFLY MET'MAP TEAM :

Programming & Development : Alexandra Zaïnal
Original concept : Baudouin d'Aumeries
Technical & hardware support : Manuel Goepfert
Assistance : Marc-Olivier Méhu




SOURCES & CREDITS :

   NOAA